Terminal Aerodrome Forecast
Issued by NWS Mt. Holly, NJ

Home | Current Version | Previous Version | Text Only | Print | Product List | Glossary On
Versions: 1 2 3 4 5 6 7 8 9 10 11 12 13
000
FTUS41 KPHI 281741
TAFTTN
TAF
KTTN 281741Z 2818/2918 24010KT P6SM FEW050
     FM290000 22004KT P6SM SKC
     FM290800 00000KT 4SM BR SKC
     FM291300 23005KT P6SM SKC=

USA.gov is the U.S. government's official web portal to all federal, state and local government web resources and services.